createdAt,value
2017-12-23T00:00:15.945Z,91.94
2017-12-23T00:01:15.967Z,92.14
2017-12-23T00:02:16.089Z,92.04
2017-12-23T00:03:16.341Z,91.56
2017-12-23T00:04:37.221Z,91.56
2017-12-23T00:05:16.164Z,91.85
2017-12-23T00:06:16.131Z,92.04
2017-12-23T00:07:16.136Z,92.04
2017-12-23T00:08:16.242Z,92.04
2017-12-23T00:09:16.187Z,91.85
2017-12-23T00:10:37.489Z,91.94
2017-12-23T00:11:16.241Z,91.94
2017-12-23T00:12:16.191Z,92.04
2017-12-23T00:13:16.218Z,92.33
2017-12-23T00:14:16.232Z,91.94
2017-12-23T00:15:16.253Z,92.04
2017-12-23T00:16:37.262Z,91.94
2017-12-23T00:17:16.279Z,92.52
2017-12-23T00:18:16.291Z,92.14
2017-12-23T00:19:16.315Z,92.14
2017-12-23T00:20:16.328Z,92.04
2017-12-23T00:21:16.391Z,92.33
2017-12-23T00:22:37.403Z,92.33
2017-12-23T00:23:16.418Z,92.23
2017-12-23T00:24:16.424Z,91.94
2017-12-23T00:25:16.437Z,92.42
2017-12-23T00:26:16.465Z,92.42
2017-12-23T00:27:16.489Z,91.94
2017-12-23T00:28:37.512Z,91.94
2017-12-23T00:29:16.526Z,92.33
2017-12-23T00:30:16.541Z,92.14
2017-12-23T00:31:16.570Z,92.33
2017-12-23T00:32:16.595Z,92.04
2017-12-23T00:33:16.616Z,92.33
2017-12-23T00:34:37.668Z,92.14
2017-12-23T00:35:16.651Z,92.33
2017-12-23T00:36:16.701Z,92.23
2017-12-23T00:37:16.694Z,92.33
2017-12-23T00:38:16.715Z,91.85
2017-12-23T00:39:16.737Z,91.75
2017-12-23T00:40:37.770Z,91.94
2017-12-23T00:41:16.787Z,91.94
2017-12-23T00:42:16.814Z,91.94
2017-12-23T00:43:16.833Z,91.94
2017-12-23T00:44:16.854Z,92.23
2017-12-23T00:45:16.864Z,92.23
2017-12-23T00:46:37.899Z,91.94
2017-12-23T00:47:16.907Z,91.85
2017-12-23T00:48:16.939Z,91.56
2017-12-23T00:49:16.965Z,91.56
2017-12-23T00:50:17.002Z,91.85
2017-12-23T00:51:16.991Z,91.94
2017-12-23T00:52:38.043Z,91.94
2017-12-23T00:53:17.035Z,92.14
2017-12-23T00:54:17.058Z,92.04
2017-12-23T00:55:17.077Z,91.56
2017-12-23T00:56:17.101Z,91.47
2017-12-23T00:57:17.117Z,91.80
2017-12-23T00:58:38.154Z,91.75
2017-12-23T00:59:17.171Z,91.94
2017-12-23T01:00:17.186Z,91.56
2017-12-23T01:01:17.240Z,91.85
2017-12-23T01:02:17.230Z,91.66
2017-12-23T01:03:17.277Z,91.94
2017-12-23T01:04:38.285Z,92.04
2017-12-23T01:05:17.288Z,91.66
2017-12-23T01:06:17.312Z,91.38
2017-12-23T01:07:17.345Z,91.28
2017-12-23T01:08:17.357Z,91.75
2017-12-23T01:09:17.387Z,91.28
2017-12-23T01:10:38.418Z,91.19
2017-12-23T01:11:17.418Z,92.04
2017-12-23T01:12:17.480Z,92.23
2017-12-23T01:13:17.453Z,91.66
2017-12-23T01:14:18.247Z,91.28
2017-12-23T01:15:17.501Z,91.56
2017-12-23T01:16:38.537Z,91.09
2017-12-23T01:17:17.554Z,91.00
2017-12-23T01:18:17.561Z,90.81
2017-12-23T01:19:17.585Z,91.19
2017-12-23T01:20:17.597Z,91.19
2017-12-23T01:21:17.638Z,91.09
2017-12-23T01:22:38.689Z,91.19
2017-12-23T01:23:17.663Z,91.28
2017-12-23T01:24:17.693Z,90.71
2017-12-23T01:25:17.716Z,90.90
2017-12-23T01:26:17.742Z,91.00
2017-12-23T01:27:17.750Z,90.90
2017-12-23T01:28:38.789Z,91.09
2017-12-23T01:29:17.797Z,90.81
2017-12-23T01:30:17.813Z,91.09
2017-12-23T01:31:17.865Z,91.19
2017-12-23T01:32:17.859Z,91.19
2017-12-23T01:33:17.892Z,91.38
2017-12-23T01:34:38.918Z,91.19
2017-12-23T01:35:17.919Z,91.28
2017-12-23T01:36:17.954Z,90.90
2017-12-23T01:37:17.966Z,90.81
2017-12-23T01:38:17.984Z,91.00
2017-12-23T01:39:18.018Z,91.09
2017-12-23T01:40:39.047Z,90.43
2017-12-23T01:41:18.051Z,90.33
2017-12-23T01:42:18.070Z,90.43
2017-12-23T01:43:18.087Z,90.81
2017-12-23T01:44:18.120Z,90.52
2017-12-23T01:45:18.127Z,90.71
2017-12-23T01:46:39.175Z,90.14
2017-12-23T01:47:18.184Z,89.95
2017-12-23T01:48:18.196Z,90.71
2017-12-23T01:49:18.221Z,90.43
2017-12-23T01:50:18.236Z,90.33
2017-12-23T01:51:18.262Z,90.14
2017-12-23T01:52:39.323Z,90.14
2017-12-23T01:53:18.303Z,90.43
2017-12-23T01:54:18.326Z,90.24
2017-12-23T01:55:18.348Z,90.33
2017-12-23T01:56:18.364Z,89.76
2017-12-23T01:57:18.383Z,90.33
2017-12-23T01:58:39.427Z,90.33
2017-12-23T01:59:18.429Z,90.52
2017-12-23T02:00:18.442Z,89.67
2017-12-23T02:01:18.480Z,89.67
2017-12-23T02:02:18.493Z,89.58
2017-12-23T02:03:18.514Z,89.67
2017-12-23T02:04:39.559Z,89.86
2017-12-23T02:05:18.555Z,89.76
2017-12-23T02:06:18.570Z,89.58
2017-12-23T02:07:18.592Z,89.86
2017-12-23T02:08:18.609Z,89.29
2017-12-23T02:09:18.652Z,89.95
2017-12-23T02:10:39.679Z,89.81
2017-12-23T02:11:18.683Z,89.48
2017-12-23T02:12:18.700Z,89.76
2017-12-23T02:13:18.717Z,89.29
2017-12-23T02:14:18.747Z,89.33
2017-12-23T02:15:18.895Z,89.53
2017-12-23T02:16:39.880Z,88.86
2017-12-23T02:17:18.808Z,89.53
2017-12-23T02:18:18.826Z,88.86
2017-12-23T02:19:18.854Z,88.39
2017-12-23T02:20:18.868Z,88.62
2017-12-23T02:21:18.889Z,88.43
2017-12-23T02:22:39.939Z,89.14
2017-12-23T02:23:18.927Z,88.67
2017-12-23T02:24:18.951Z,88.76
2017-12-23T02:25:18.984Z,89.14
2017-12-23T02:26:18.998Z,89.33
2017-12-23T02:27:19.016Z,89.05
2017-12-23T02:28:40.063Z,88.62
2017-12-23T02:29:19.049Z,89.14
2017-12-23T02:30:19.140Z,89.29
2017-12-23T02:31:19.107Z,89.10
2017-12-23T02:32:19.118Z,88.43
2017-12-23T02:33:19.135Z,88.72
2017-12-23T02:34:40.174Z,88.86
2017-12-23T02:35:19.177Z,88.72
2017-12-23T02:36:19.202Z,89.00
2017-12-23T02:37:19.228Z,88.62
2017-12-23T02:38:19.238Z,88.81
2017-12-23T02:39:19.279Z,88.62
2017-12-23T02:40:40.304Z,88.72
2017-12-23T02:41:19.396Z,89.67
2017-12-23T02:42:19.325Z,89.39
2017-12-23T02:43:19.352Z,89.39
2017-12-23T02:44:19.377Z,89.58
2017-12-23T02:45:19.397Z,89.00
2017-12-23T02:46:40.418Z,89.48
2017-12-23T02:47:19.434Z,89.20
2017-12-23T02:48:19.451Z,89.29
2017-12-23T02:49:19.484Z,89.29
2017-12-23T02:50:19.485Z,89.58
2017-12-23T02:51:19.513Z,89.48
2017-12-23T02:52:40.546Z,89.29
2017-12-23T02:53:19.554Z,89.48
2017-12-23T02:54:19.590Z,89.10
2017-12-23T02:55:19.598Z,89.29
2017-12-23T02:56:19.617Z,89.29
2017-12-23T02:57:19.640Z,89.48
2017-12-23T02:58:40.675Z,89.58
2017-12-23T02:59:19.680Z,89.76
2017-12-23T03:00:19.695Z,89.29
2017-12-23T03:01:19.725Z,89.58
2017-12-23T03:02:19.744Z,89.48
2017-12-23T03:03:19.763Z,89.39
2017-12-23T03:04:40.846Z,89.76
2017-12-23T03:05:19.805Z,89.29
2017-12-23T03:06:19.828Z,89.10
2017-12-23T03:07:19.846Z,89.58
2017-12-23T03:08:19.877Z,89.29
2017-12-23T03:09:19.880Z,89.39
2017-12-23T03:10:40.926Z,89.58
2017-12-23T03:11:19.930Z,89.39
2017-12-23T03:12:19.946Z,89.67
2017-12-23T03:13:19.981Z,89.39
2017-12-23T03:14:19.999Z,90.05
2017-12-23T03:15:20.005Z,89.95
2017-12-23T03:16:41.045Z,89.67
2017-12-23T03:17:20.052Z,89.48
2017-12-23T03:18:20.075Z,89.58
2017-12-23T03:19:20.101Z,90.14
2017-12-23T03:20:20.110Z,89.67
2017-12-23T03:21:20.134Z,89.39
2017-12-23T03:22:41.182Z,89.39
2017-12-23T03:23:20.175Z,89.76
2017-12-23T03:24:20.210Z,89.76
2017-12-23T03:25:20.220Z,89.95
2017-12-23T03:26:20.236Z,89.86
2017-12-23T03:27:20.254Z,89.67
2017-12-23T03:28:41.490Z,89.48
2017-12-23T03:29:20.293Z,90.24
2017-12-23T03:30:20.326Z,90.05
2017-12-23T03:31:20.351Z,90.62
2017-12-23T03:32:20.357Z,90.33
2017-12-23T03:33:20.374Z,90.43
2017-12-23T03:34:41.427Z,90.43
2017-12-23T03:35:20.423Z,90.33
2017-12-23T03:36:20.447Z,90.33
2017-12-23T03:37:20.465Z,90.52
2017-12-23T03:38:20.475Z,90.33
2017-12-23T03:39:20.503Z,90.52
2017-12-23T03:40:41.540Z,90.24
2017-12-23T03:41:20.541Z,90.24
2017-12-23T03:42:20.564Z,90.62
2017-12-23T03:43:20.580Z,90.43
2017-12-23T03:44:20.598Z,90.71
2017-12-23T03:45:20.625Z,91.38
2017-12-23T03:46:41.670Z,91.00
2017-12-23T03:47:20.668Z,91.09
2017-12-23T03:48:20.687Z,91.19
2017-12-23T03:49:20.717Z,91.28
2017-12-23T03:50:20.730Z,91.28
2017-12-23T03:51:20.744Z,91.28
2017-12-23T03:52:41.783Z,91.00
2017-12-23T03:53:20.796Z,91.19
2017-12-23T03:54:20.805Z,91.28
2017-12-23T03:55:20.835Z,90.81
2017-12-23T03:56:20.853Z,91.19
2017-12-23T03:57:20.872Z,91.00
2017-12-23T03:58:41.904Z,91.09
2017-12-23T03:59:20.903Z,90.81
2017-12-23T04:00:20.927Z,91.19
2017-12-23T04:01:20.940Z,91.38
2017-12-23T04:02:20.979Z,90.81
2017-12-23T04:03:20.994Z,91.00
2017-12-23T04:04:42.023Z,90.81
2017-12-23T04:05:21.036Z,90.81
2017-12-23T04:06:21.069Z,90.81
2017-12-23T04:07:21.082Z,91.09
2017-12-23T04:08:21.773Z,91.09
2017-12-23T04:09:21.121Z,91.09
2017-12-23T04:10:42.157Z,90.71
2017-12-23T04:11:21.153Z,91.00
2017-12-23T04:12:21.168Z,90.71
2017-12-23T04:13:21.195Z,90.90
2017-12-23T04:14:21.220Z,91.00
2017-12-23T04:15:21.237Z,91.00
2017-12-23T04:16:42.269Z,91.09
2017-12-23T04:17:21.331Z,91.19
2017-12-23T04:18:21.296Z,91.00
2017-12-23T04:19:21.349Z,91.28
2017-12-23T04:20:21.339Z,90.14
2017-12-23T04:21:21.354Z,90.14
2017-12-23T04:22:42.385Z,90.43
2017-12-23T04:23:21.398Z,91.19
2017-12-23T04:24:21.408Z,90.24
2017-12-23T04:25:21.442Z,90.71
2017-12-23T04:26:21.463Z,90.90
2017-12-23T04:27:21.483Z,90.62
2017-12-23T04:28:42.529Z,90.33
2017-12-23T04:29:21.517Z,90.24
2017-12-23T04:30:21.544Z,90.24
2017-12-23T04:31:21.559Z,90.71
2017-12-23T04:32:21.595Z,91.38
2017-12-23T04:33:21.606Z,90.81
2017-12-23T04:34:42.640Z,91.38
2017-12-23T04:35:21.651Z,91.19
2017-12-23T04:36:21.679Z,91.19
2017-12-23T04:37:21.683Z,91.09
2017-12-23T04:38:21.704Z,91.09
2017-12-23T04:39:21.720Z,91.38
2017-12-23T04:40:42.757Z,91.09
2017-12-23T04:41:21.768Z,91.28
2017-12-23T04:42:21.794Z,91.19
2017-12-23T04:43:21.810Z,91.28
2017-12-23T04:44:21.827Z,91.38
2017-12-23T04:45:21.841Z,91.09
2017-12-23T04:46:42.889Z,90.81
2017-12-23T04:47:21.883Z,90.81
2017-12-23T04:48:21.912Z,90.71
2017-12-23T04:49:21.924Z,91.09
2017-12-23T04:50:21.946Z,91.28
2017-12-23T04:51:21.965Z,91.28
2017-12-23T04:52:43.000Z,90.90
2017-12-23T04:53:22.007Z,91.00
2017-12-23T04:54:22.029Z,91.28
2017-12-23T04:55:22.046Z,91.19
2017-12-23T04:56:22.074Z,91.09
2017-12-23T04:57:22.083Z,91.00
2017-12-23T04:58:43.119Z,91.00
2017-12-23T04:59:22.130Z,91.19
2017-12-23T05:00:22.149Z,91.38
2017-12-23T05:01:22.182Z,91.00
2017-12-23T05:02:22.190Z,90.90
2017-12-23T05:03:22.245Z,90.81
2017-12-23T05:04:43.249Z,90.81
2017-12-23T05:05:22.246Z,90.90
2017-12-23T05:06:22.274Z,91.28
2017-12-23T05:07:22.283Z,91.09
2017-12-23T05:08:22.315Z,91.38
2017-12-23T05:09:22.333Z,91.09
2017-12-23T05:10:43.369Z,90.71
2017-12-23T05:11:22.377Z,91.28
2017-12-23T05:12:22.391Z,91.09
2017-12-23T05:13:22.410Z,91.28
2017-12-23T05:14:22.438Z,91.09
2017-12-23T05:15:22.452Z,90.90
2017-12-23T05:16:43.495Z,91.00
2017-12-23T05:17:22.492Z,91.28
2017-12-23T05:18:22.530Z,91.28
2017-12-23T05:19:22.531Z,91.28
2017-12-23T05:20:22.558Z,91.09
2017-12-23T05:21:22.578Z,90.62
2017-12-23T05:22:43.626Z,91.00
2017-12-23T05:23:22.614Z,90.62
2017-12-23T05:24:22.637Z,91.00
2017-12-23T05:25:22.656Z,90.81
2017-12-23T05:26:22.697Z,90.90
2017-12-23T05:27:22.700Z,91.09
2017-12-23T05:28:43.733Z,91.09
2017-12-23T05:29:22.743Z,91.28
2017-12-23T05:30:22.755Z,91.00
2017-12-23T05:31:22.788Z,91.38
2017-12-23T05:32:22.804Z,91.00
2017-12-23T05:33:22.823Z,91.19
2017-12-23T05:34:43.862Z,91.28
2017-12-23T05:35:22.876Z,90.90
2017-12-23T05:36:22.880Z,90.90
2017-12-23T05:37:22.904Z,90.81
2017-12-23T05:38:22.946Z,91.28
2017-12-23T05:39:22.947Z,91.09
2017-12-23T05:40:43.981Z,91.00
2017-12-23T05:41:22.997Z,91.09
2017-12-23T05:42:23.012Z,91.19
2017-12-23T05:43:23.044Z,91.19
2017-12-23T05:44:23.055Z,91.19
2017-12-23T05:45:23.063Z,90.76
2017-12-23T05:46:44.122Z,91.33
2017-12-23T05:47:23.126Z,91.47
2017-12-23T05:48:23.145Z,91.47
2017-12-23T05:49:23.151Z,91.47
2017-12-23T05:50:23.168Z,92.23
2017-12-23T05:51:23.199Z,91.85
2017-12-23T05:52:44.215Z,91.19
2017-12-23T05:53:23.227Z,91.75
2017-12-23T05:54:23.249Z,92.04
2017-12-23T05:55:23.276Z,92.52
2017-12-23T05:56:23.284Z,92.23
2017-12-23T05:57:23.332Z,91.85
2017-12-23T05:58:44.346Z,92.14
2017-12-23T05:59:23.360Z,92.14
2017-12-23T06:00:23.364Z,91.99
2017-12-23T06:01:23.411Z,92.14
2017-12-23T06:02:23.415Z,92.33
2017-12-23T06:03:23.434Z,92.66
2017-12-23T06:04:44.470Z,92.42
2017-12-23T06:05:23.483Z,92.52
2017-12-23T06:06:23.495Z,92.85
2017-12-23T06:07:23.510Z,92.85
2017-12-23T06:08:23.567Z,92.85
2017-12-23T06:09:23.546Z,92.71
2017-12-23T06:10:44.584Z,92.71
2017-12-23T06:11:23.589Z,92.80
2017-12-23T06:12:23.613Z,92.57
2017-12-23T06:13:23.639Z,93.18
2017-12-23T06:14:23.669Z,93.32
2017-12-23T06:15:23.677Z,93.41
2017-12-23T06:16:44.721Z,93.51
2017-12-23T06:17:23.707Z,93.23
2017-12-23T06:18:23.747Z,93.80
2017-12-23T06:19:23.749Z,93.61
2017-12-23T06:20:23.767Z,93.51
2017-12-23T06:21:23.797Z,93.84
2017-12-23T06:22:44.837Z,93.80
2017-12-23T06:23:23.850Z,93.80
2017-12-23T06:24:23.850Z,93.61
2017-12-23T06:25:23.865Z,93.70
2017-12-23T06:26:23.900Z,93.84
2017-12-23T06:27:23.916Z,93.99
2017-12-23T06:28:44.946Z,93.80
2017-12-23T06:29:23.955Z,93.56
2017-12-23T06:30:23.977Z,93.46
2017-12-23T06:31:23.998Z,93.75
2017-12-23T06:32:24.013Z,93.51
2017-12-23T06:33:24.034Z,93.84
2017-12-23T06:34:45.078Z,93.75
2017-12-23T06:35:24.096Z,93.84
2017-12-23T06:36:24.151Z,93.46
2017-12-23T06:37:24.209Z,93.75
2017-12-23T06:38:24.156Z,93.94
2017-12-23T06:39:24.377Z,93.56
2017-12-23T06:40:45.196Z,93.94
2017-12-23T06:41:24.371Z,93.84
2017-12-23T06:42:24.224Z,94.03
2017-12-23T06:43:24.395Z,93.94
2017-12-23T06:44:24.486Z,94.70
2017-12-23T06:45:24.541Z,94.42
2017-12-23T06:46:45.328Z,94.51
2017-12-23T06:47:24.327Z,94.13
2017-12-23T06:48:24.360Z,94.70
2017-12-23T06:49:24.366Z,94.23
2017-12-23T06:50:24.404Z,94.42
2017-12-23T06:51:24.400Z,94.32
2017-12-23T06:52:45.438Z,94.60
2017-12-23T06:53:24.444Z,94.79
2017-12-23T06:54:24.470Z,94.70
2017-12-23T06:55:24.483Z,95.07
2017-12-23T06:56:24.501Z,95.27
2017-12-23T06:57:24.541Z,94.79
2017-12-23T06:58:45.565Z,96.22
2017-12-23T06:59:24.566Z,95.65
2017-12-23T07:00:24.587Z,95.27
2017-12-23T07:01:24.611Z,95.74
2017-12-23T07:02:24.628Z,95.27
2017-12-23T07:03:24.639Z,95.46
2017-12-23T07:04:45.687Z,95.27
2017-12-23T07:05:24.697Z,95.93
2017-12-23T07:06:24.712Z,96.22
2017-12-23T07:07:24.746Z,95.74
2017-12-23T07:08:24.755Z,96.12
2017-12-23T07:09:24.768Z,95.84
2017-12-23T07:10:45.804Z,95.84
2017-12-23T07:11:24.820Z,95.74
2017-12-23T07:12:24.826Z,96.03
2017-12-23T07:13:24.855Z,96.03
2017-12-23T07:14:24.867Z,96.03
2017-12-23T07:15:24.902Z,96.22
2017-12-23T07:16:45.942Z,96.69
2017-12-23T07:17:24.936Z,96.41
2017-12-23T07:18:24.959Z,95.84
2017-12-23T07:19:25.021Z,96.12
2017-12-23T07:20:25.005Z,96.59
2017-12-23T07:21:25.015Z,96.69
2017-12-23T07:22:46.054Z,96.41
2017-12-23T07:23:25.059Z,96.41
2017-12-23T07:24:25.102Z,96.50
2017-12-23T07:25:25.116Z,96.69
2017-12-23T07:26:25.125Z,96.78
2017-12-23T07:27:25.139Z,96.69
2017-12-23T07:28:46.186Z,96.59
2017-12-23T07:29:25.174Z,96.69
2017-12-23T07:30:25.195Z,96.41
2017-12-23T07:31:25.222Z,96.78
2017-12-23T07:32:25.250Z,96.41
2017-12-23T07:33:25.260Z,96.69
2017-12-23T07:34:46.296Z,96.78
2017-12-23T07:35:25.298Z,96.69
2017-12-23T07:36:25.326Z,96.97
2017-12-23T07:37:25.363Z,96.69
2017-12-23T07:38:25.365Z,96.69
2017-12-23T07:39:25.415Z,97.07
2017-12-23T07:40:46.417Z,97.17
2017-12-23T07:41:25.420Z,97.07
2017-12-23T07:42:25.441Z,96.78
2017-12-23T07:43:25.473Z,96.41
2017-12-23T07:44:25.486Z,96.88
2017-12-23T07:45:25.517Z,96.41
2017-12-23T07:46:46.539Z,96.45
2017-12-23T07:47:25.554Z,96.64
2017-12-23T07:48:25.616Z,96.64
2017-12-23T07:49:25.591Z,96.74
2017-12-23T07:50:26.257Z,96.55
2017-12-23T07:51:25.631Z,96.55
2017-12-23T07:52:46.692Z,96.36
2017-12-23T07:53:25.678Z,96.45
2017-12-23T07:54:25.700Z,96.64
2017-12-23T07:55:25.711Z,95.89
2017-12-23T07:56:25.732Z,96.17
2017-12-23T07:57:25.761Z,96.17
2017-12-23T07:58:46.789Z,96.17
2017-12-23T07:59:25.803Z,96.17
2017-12-23T08:00:25.814Z,96.08
2017-12-23T08:01:25.862Z,96.17
2017-12-23T08:02:25.858Z,96.26
2017-12-23T08:03:25.921Z,96.26
2017-12-23T08:04:46.908Z,96.08
2017-12-23T08:05:25.954Z,96.08
2017-12-23T08:06:25.939Z,95.79
2017-12-23T08:07:25.957Z,96.08
2017-12-23T08:08:25.994Z,95.98
2017-12-23T08:09:26.001Z,96.26
2017-12-23T08:10:47.039Z,96.26
2017-12-23T08:11:26.056Z,95.89
2017-12-23T08:12:26.066Z,96.17
2017-12-23T08:13:26.103Z,96.17
2017-12-23T08:14:26.111Z,95.89
2017-12-23T08:15:26.146Z,95.89
2017-12-23T08:16:47.160Z,95.89
2017-12-23T08:17:26.166Z,95.70
2017-12-23T08:18:26.202Z,96.36
2017-12-23T08:19:26.214Z,96.26
2017-12-23T08:20:26.231Z,95.89
2017-12-23T08:21:26.265Z,95.89
2017-12-23T08:22:47.300Z,95.89
2017-12-23T08:23:26.302Z,96.26
2017-12-23T08:24:26.310Z,95.98
2017-12-23T08:25:26.341Z,95.98
2017-12-23T08:26:26.355Z,96.17
2017-12-23T08:27:26.380Z,95.89
2017-12-23T08:28:47.444Z,95.89
2017-12-23T08:29:26.423Z,95.98
2017-12-23T08:30:26.435Z,96.08
2017-12-23T08:31:26.464Z,95.41
2017-12-23T08:32:26.485Z,96.08
2017-12-23T08:33:26.515Z,95.41
2017-12-23T08:34:47.532Z,95.46
2017-12-23T08:35:26.548Z,96.08
2017-12-23T08:36:26.560Z,96.26
2017-12-23T08:37:26.590Z,96.08
2017-12-23T08:38:26.605Z,95.79
2017-12-23T08:39:26.637Z,96.12
2017-12-23T08:40:47.673Z,96.12
2017-12-23T08:41:26.682Z,95.46
2017-12-23T08:42:26.700Z,95.94
2017-12-23T08:43:26.712Z,95.94
2017-12-23T08:44:26.736Z,95.84
2017-12-23T08:45:26.755Z,96.22
2017-12-23T08:46:47.792Z,96.31
2017-12-23T08:47:26.812Z,96.03
2017-12-23T08:48:26.822Z,96.03
2017-12-23T08:49:26.845Z,96.03
2017-12-23T08:50:26.857Z,95.27
2017-12-23T08:51:26.883Z,95.46
2017-12-23T08:52:47.929Z,96.50
2017-12-23T08:53:26.924Z,95.84
2017-12-23T08:54:26.951Z,96.03
2017-12-23T08:55:26.964Z,95.94
2017-12-23T08:56:26.993Z,95.75
2017-12-23T08:57:27.013Z,95.94
2017-12-23T08:58:48.041Z,96.12
2017-12-23T08:59:27.053Z,96.12
2017-12-23T09:00:27.063Z,95.84
2017-12-23T09:01:27.104Z,95.94
2017-12-23T09:02:27.137Z,95.84
2017-12-23T09:03:27.129Z,96.41
2017-12-23T09:04:48.171Z,95.94
2017-12-23T09:05:27.393Z,96.12
2017-12-23T09:06:27.221Z,96.03
2017-12-23T09:07:27.210Z,95.94
2017-12-23T09:08:27.246Z,96.31
2017-12-23T09:09:27.258Z,96.12
2017-12-23T09:10:48.294Z,96.22
2017-12-23T09:11:27.310Z,96.69
2017-12-23T09:12:27.325Z,96.31
2017-12-23T09:13:27.395Z,96.41
2017-12-23T09:14:27.363Z,96.31
2017-12-23T09:15:27.406Z,96.22
2017-12-23T09:16:48.422Z,96.50
2017-12-23T09:17:27.445Z,96.69
2017-12-23T09:18:27.453Z,96.50
2017-12-23T09:19:27.473Z,96.50
2017-12-23T09:20:27.489Z,96.69
2017-12-23T09:21:27.516Z,96.69
2017-12-23T09:22:48.558Z,96.50
2017-12-23T09:23:27.556Z,96.79
2017-12-23T09:24:27.573Z,96.41
2017-12-23T09:25:27.599Z,96.69
2017-12-23T09:26:27.642Z,96.50
2017-12-23T09:27:27.705Z,96.50
2017-12-23T09:28:48.676Z,96.79
2017-12-23T09:29:27.686Z,96.69
2017-12-23T09:30:27.713Z,96.69
2017-12-23T09:31:27.749Z,96.50
2017-12-23T09:32:27.758Z,96.69
2017-12-23T09:33:27.791Z,96.50
2017-12-23T09:34:48.818Z,96.79
2017-12-23T09:35:27.808Z,96.69
2017-12-23T09:36:27.824Z,96.79
2017-12-23T09:37:27.847Z,96.98
2017-12-23T09:38:27.876Z,96.98
2017-12-23T09:39:27.895Z,96.98
2017-12-23T09:40:48.939Z,97.07
2017-12-23T09:41:27.944Z,97.17
2017-12-23T09:42:27.968Z,97.27
2017-12-23T09:43:27.981Z,96.98
2017-12-23T09:44:28.003Z,96.98
2017-12-23T09:45:28.033Z,97.27
2017-12-23T09:46:49.063Z,97.17
2017-12-23T09:47:28.085Z,96.98
2017-12-23T09:48:28.093Z,97.64
2017-12-23T09:49:28.116Z,97.45
2017-12-23T09:50:28.136Z,97.74
2017-12-23T09:51:28.148Z,97.55
2017-12-23T09:52:49.185Z,97.55
2017-12-23T09:53:28.201Z,97.55
2017-12-23T09:54:28.231Z,98.12
2017-12-23T09:55:28.243Z,98.12
2017-12-23T09:56:28.267Z,98.02
2017-12-23T09:57:28.285Z,97.74
2017-12-23T09:58:49.335Z,98.69
2017-12-23T09:59:28.335Z,98.02
2017-12-23T10:00:28.350Z,98.21
2017-12-23T10:01:28.383Z,98.12
2017-12-23T10:02:28.384Z,97.83
2017-12-23T10:03:28.413Z,97.74
2017-12-23T10:04:50.288Z,97.74
2017-12-23T10:05:28.597Z,98.02
2017-12-23T10:06:28.484Z,98.50
2017-12-23T10:07:28.489Z,98.21
2017-12-23T10:08:28.510Z,98.59
2017-12-23T10:09:28.538Z,98.55
2017-12-23T10:10:49.578Z,98.40
2017-12-23T10:11:28.599Z,98.31
2017-12-23T10:12:28.607Z,98.36
2017-12-23T10:13:28.619Z,98.21
2017-12-23T10:14:28.645Z,98.36
2017-12-23T10:15:28.670Z,98.31
2017-12-23T10:16:49.695Z,99.07
2017-12-23T10:17:28.701Z,98.45
2017-12-23T10:18:28.730Z,98.83
2017-12-23T10:19:28.748Z,98.74
2017-12-23T10:20:28.783Z,98.55
2017-12-23T10:21:28.801Z,99.02
2017-12-23T10:22:49.849Z,98.45
2017-12-23T10:23:28.848Z,98.83
2017-12-23T10:24:28.864Z,98.45
2017-12-23T10:25:28.895Z,98.83
2017-12-23T10:26:28.905Z,98.36
2017-12-23T10:27:28.954Z,98.36
2017-12-23T10:28:49.957Z,98.17
2017-12-23T10:29:28.962Z,98.36
2017-12-23T10:30:28.994Z,98.74
2017-12-23T10:31:29.008Z,98.55
2017-12-23T10:32:29.032Z,98.36
2017-12-23T10:33:29.062Z,98.36
2017-12-23T10:34:50.093Z,98.64
2017-12-23T10:35:29.098Z,98.26
2017-12-23T10:36:29.116Z,98.64
2017-12-23T10:37:29.140Z,98.55
2017-12-23T10:38:29.169Z,98.74
2017-12-23T10:39:29.187Z,98.45
2017-12-23T10:40:50.231Z,98.74
2017-12-23T10:41:29.224Z,97.97
2017-12-23T10:42:29.262Z,98.64
2017-12-23T10:43:29.265Z,98.74
2017-12-23T10:44:29.287Z,98.74
2017-12-23T10:45:29.310Z,97.97
2017-12-23T10:46:50.344Z,98.26
2017-12-23T10:47:29.371Z,98.07
2017-12-23T10:48:29.371Z,98.17
2017-12-23T10:49:29.409Z,97.97
2017-12-23T10:50:29.420Z,98.17
2017-12-23T10:51:29.562Z,97.69
2017-12-23T10:52:50.477Z,97.41
2017-12-23T10:53:29.506Z,97.60
2017-12-23T10:54:29.505Z,97.50
2017-12-23T10:55:29.534Z,97.41
2017-12-23T10:56:29.558Z,97.60
2017-12-23T10:57:29.569Z,97.50
2017-12-23T10:58:50.615Z,97.31
2017-12-23T10:59:29.620Z,97.60
2017-12-23T11:00:29.637Z,97.60
2017-12-23T11:01:29.657Z,97.12
2017-12-23T11:02:29.703Z,97.31
2017-12-23T11:03:29.704Z,97.22
2017-12-23T11:04:50.743Z,97.22
2017-12-23T11:05:29.737Z,97.22
2017-12-23T11:06:29.768Z,96.45
2017-12-23T11:07:29.791Z,96.74
2017-12-23T11:08:29.804Z,96.79
2017-12-23T11:09:29.831Z,96.74
2017-12-23T11:10:50.865Z,95.84
2017-12-23T11:11:29.874Z,96.03
2017-12-23T11:12:29.891Z,96.22
2017-12-23T11:13:29.918Z,95.79
2017-12-23T11:14:29.942Z,96.22
2017-12-23T11:15:30.004Z,96.36
2017-12-23T11:16:51.006Z,96.41
2017-12-23T11:17:30.020Z,95.46
2017-12-23T11:18:30.043Z,95.46
2017-12-23T11:19:30.063Z,95.65
2017-12-23T11:20:30.074Z,95.84
2017-12-23T11:21:30.083Z,95.84
2017-12-23T11:22:51.155Z,95.94
2017-12-23T11:23:30.131Z,95.94
2017-12-23T11:24:30.157Z,95.65
2017-12-23T11:25:30.181Z,95.27
2017-12-23T11:26:30.206Z,95.46
2017-12-23T11:27:30.228Z,95.36
2017-12-23T11:28:51.276Z,95.94
2017-12-23T11:29:30.264Z,96.03
2017-12-23T11:30:30.306Z,96.03
2017-12-23T11:31:30.315Z,95.94
2017-12-23T11:32:30.334Z,96.50
2017-12-23T11:33:30.345Z,96.41
2017-12-23T11:34:51.396Z,96.41
2017-12-23T11:35:30.394Z,96.12
2017-12-23T11:36:30.434Z,97.08
2017-12-23T11:37:30.447Z,96.69
2017-12-23T11:38:30.478Z,96.69
2017-12-23T11:39:30.483Z,96.69
2017-12-23T11:40:52.293Z,97.27
2017-12-23T11:41:30.528Z,97.17
2017-12-23T11:42:30.555Z,97.27
2017-12-23T11:43:30.585Z,97.17
2017-12-23T11:44:30.591Z,97.08
2017-12-23T11:45:30.623Z,97.17
2017-12-23T11:46:51.650Z,97.27
2017-12-23T11:47:30.665Z,97.36
2017-12-23T11:48:30.692Z,97.55
2017-12-23T11:49:30.701Z,96.98
2017-12-23T11:50:30.723Z,97.17
2017-12-23T11:51:30.747Z,97.27
2017-12-23T11:52:51.805Z,96.89
2017-12-23T11:53:30.788Z,96.98
2017-12-23T11:54:30.823Z,97.17
2017-12-23T11:55:30.844Z,97.08
2017-12-23T11:56:30.855Z,97.17
2017-12-23T11:57:30.891Z,97.74
2017-12-23T11:58:51.920Z,97.36
2017-12-23T11:59:30.930Z,97.55
2017-12-23T12:00:30.945Z,97.45
2017-12-23T12:01:30.969Z,97.55
2017-12-23T12:02:30.987Z,97.64
2017-12-23T12:03:31.013Z,97.83
2017-12-23T12:04:52.049Z,98.22
2017-12-23T12:05:31.054Z,97.64
2017-12-23T12:06:31.080Z,97.64
2017-12-23T12:07:31.101Z,98.12
2017-12-23T12:08:31.127Z,98.60
2017-12-23T12:09:31.143Z,98.60
2017-12-23T12:10:52.183Z,98.60
2017-12-23T12:11:31.185Z,98.22
2017-12-23T12:12:31.216Z,98.31
2017-12-23T12:13:31.234Z,98.31
2017-12-23T12:14:31.289Z,98.60
2017-12-23T12:15:31.312Z,98.97
2017-12-23T12:16:52.317Z,99.26
2017-12-23T12:17:31.316Z,99.26
2017-12-23T12:18:31.411Z,99.07
2017-12-23T12:19:31.359Z,99.36
2017-12-23T12:20:31.389Z,99.45
2017-12-23T12:21:31.426Z,99.16
2017-12-23T12:22:52.446Z,99.26
2017-12-23T12:23:31.517Z,99.07
2017-12-23T12:24:31.481Z,98.60
2017-12-23T12:25:31.497Z,99.26
2017-12-23T12:26:31.539Z,99.36
2017-12-23T12:27:31.561Z,99.26
2017-12-23T12:28:52.609Z,99.16
2017-12-23T12:29:31.611Z,98.50
2017-12-23T12:30:31.610Z,98.50
2017-12-23T12:31:31.633Z,98.50
2017-12-23T12:32:31.661Z,98.41
2017-12-23T12:33:31.668Z,98.60
2017-12-23T12:34:52.720Z,99.16
2017-12-23T12:35:31.720Z,98.79
2017-12-23T12:36:31.746Z,99.22
2017-12-23T12:37:31.767Z,98.46
2017-12-23T12:38:31.784Z,98.46
2017-12-23T12:39:31.800Z,98.46
2017-12-23T12:40:52.847Z,97.88
2017-12-23T12:41:31.874Z,97.98
2017-12-23T12:42:31.893Z,98.17
2017-12-23T12:43:31.897Z,98.97
2017-12-23T12:44:31.917Z,98.55
2017-12-23T12:45:31.943Z,98.31
2017-12-23T12:46:53.040Z,98.60
2017-12-23T12:47:31.972Z,98.46
2017-12-23T12:48:32.001Z,98.36
2017-12-23T12:49:32.044Z,98.74
2017-12-23T12:50:32.049Z,99.02
2017-12-23T12:51:32.079Z,98.65
2017-12-23T12:52:53.307Z,98.17